Flight Track Log - Related Links

Times and Time Zones

All times are in EDT time to prevent confusion due to time zone crossing. See the LXJ342 flight status page for this flight to view local times or setup timezone preferences in your user account.

Time Position Orientation Groundspeed Altitude Reporting Facility
EDT Latitude Longitude Course Direction KTS MPH feet Rate Location/Type
Thu 10:00:04 AM 25.8025 -80.2722 81° East 169 194 900  Level Miami Center
Thu 10:00:41 AM 25.8075 -80.2356 81° East 194 223 3,100 3,429 Climbing Miami Center
Thu 10:01:42 AM 25.8153 -80.1689 83° East 222 255 6,500 3,000 Climbing Miami Center
Thu 10:02:43 AM 25.8719 -80.1472 19° North 275 316 9,200 2,278 Climbing Miami Center
Thu 10:03:30 AM 25.9086 -80.1967 310° West 296 341 10,600 2,075 Climbing Miami Center
Thu 10:04:30 AM 25.9586 -80.2883 301° West 322 371 12,900 2,350 Climbing Miami Center
Thu 10:05:30 AM 26.0128 -80.3822 303° West 350 403 15,300 2,600 Climbing Miami Center
Thu 10:06:30 AM 26.0669 -80.4786 302° West 365 420 18,100 2,150 Climbing Miami Center
Thu 10:07:30 AM 26.1247 -80.5822 302° West 377 434 19,600 1,500 Climbing Miami Center
Thu 10:08:30 AM 26.1869 -80.6836 304° West 389 448 21,100 1,850 Climbing Miami Center
Thu 10:09:30 AM 26.2814 -80.7492 328° Northwest 384 442 23,300 2,150 Climbing Miami Center
Thu 10:10:30 AM 26.3836 -80.8269 326° Northwest 394 453 25,400 1,600 Climbing Miami Center
Thu 10:11:30 AM 26.4697 -80.8878 328° Northwest 406 467 26,500 850 Climbing Miami Center
Thu 10:12:30 AM 26.5822 -80.9683 327° Northwest 427 491 27,100 750 Climbing Miami Center
Thu 10:13:30 AM 26.6744 -81.0367 326° Northwest 438 504 28,000 4,450 Climbing Miami Center
Thu 10:14:30 AM 26.7908 -81.1222 327° Northwest 446 513 36,000 550 Climbing Miami Center
Thu 10:15:30 AM 26.8992 -81.2006 327° Northwest 456 525 29,100 -2,400 Descending Miami Center
Thu 10:16:30 AM 27.0033 -81.2792 326° Northwest 450 518 31,200 1,800 Climbing Miami Center
Thu 10:17:30 AM 27.1033 -81.3553 326° Northwest 440 506 32,700 1,400 Climbing Miami Center
Thu 10:18:30 AM 27.1911 -81.4192 327° Northwest 426 490 34,000 1,250 Climbing Miami Center
Thu 10:19:30 AM 27.2889 -81.4931 326° Northwest 426 490 35,200 1,000 Climbing Miami Center
Thu 10:20:30 AM 27.3928 -81.5697 327° Northwest 413 475 36,000 400 Climbing Miami Center
Thu 10:21:30 AM 27.4906 -81.6442 326° Northwest 413 475 36,000  Level Miami Center
Thu 10:22:30 AM 27.5903 -81.7161 327° Northwest 421 484 36,000  Level Miami Center
Thu 10:24:30 AM 27.7975 -81.8650 328° Northwest 434 499 36,000  Level Jacksonville Center
Thu 10:25:30 AM 27.9003 -81.9439 326° Northwest 445 512 36,000  Level Jacksonville Center
Thu 10:26:30 AM 27.9989 -82.0206 326° Northwest 439 505 36,000  Level Jacksonville Center
Thu 10:27:30 AM 28.0911 -82.1067 321° Northwest 433 498 36,000 -50 Level Jacksonville Center
Thu 10:28:30 AM 28.1856 -82.1908 322° Northwest 433 498 35,900 -1,000 Descending Jacksonville Center
Thu 10:29:30 AM 28.2819 -82.2797 321° Northwest 433 498 34,000 -1,950 Descending Jacksonville Center
Thu 10:30:30 AM 28.3783 -82.3642 322° Northwest 442 509 32,000 -2,000 Descending Jacksonville Center
Thu 10:31:30 AM 28.4642 -82.4417 322° Northwest 442 509 30,000 -2,000 Descending Jacksonville Center
Thu 10:32:30 AM 28.5606 -82.5286 322° Northwest 442 509 28,000 -1,600 Descending Jacksonville Center
Thu 10:33:30 AM 28.6608 -82.6158 323° Northwest 447 514 26,800 -1,300 Descending Jacksonville Center
Thu 10:34:30 AM 28.7569 -82.7031 322° Northwest 441 507 25,400 -1,750 Descending Jacksonville Center
Thu 10:35:30 AM 28.8531 -82.7931 321° Northwest 446 513 23,300 -1,700 Descending Jacksonville Center
Thu 10:36:30 AM 28.9472 -82.8783 322° Northwest 446 513 22,000 -650 Descending Jacksonville Center
Thu 10:37:30 AM 29.0389 -82.9614 322° Northwest 440 506 22,000  Level Jacksonville Center
Thu 10:38:30 AM 29.1308 -83.0469 321° Northwest 435 501 22,000  Level Jacksonville Center
Thu 10:39:30 AM 29.2225 -83.1306 321° Northwest 430 495 22,000  Level Jacksonville Center
Thu 10:40:30 AM 29.3142 -83.2164 321° Northwest 425 489 22,000  Level Jacksonville Center
Thu 10:41:30 AM 29.4078 -83.3025 321° Northwest 425 489 22,000 -350 Level Jacksonville Center
Thu 10:42:30 AM 29.5014 -83.3864 322° Northwest 425 489 21,300 -1,400 Descending Jacksonville Center
Thu 10:43:30 AM 29.5931 -83.4731 321° Northwest 425 489 19,200 -1,950 Descending Jacksonville Center
Thu 10:44:30 AM 29.6803 -83.5500 323° Northwest 419 482 17,400 -1,950 Descending Jacksonville Center
Thu 10:45:30 AM 29.7653 -83.6319 320° Northwest 414 476 15,300 -2,000 Descending Jacksonville Center
Thu 10:46:30 AM 29.8717 -83.6542 350° North 352 405 13,400 -1,950 Descending Jacksonville Center
Thu 10:47:30 AM 29.9700 -83.6333 10° North 343 395 11,400 -1,700 Descending Jacksonville Center
Thu 10:48:30 AM 30.0619 -83.6389 357° North 338 389 10,000 -700 Descending Jacksonville Center
Thu 10:49:30 AM 30.1367 -83.7092 321° Northwest 322 371 10,000  Level Jacksonville Center
Thu 10:50:30 AM 30.2111 -83.7917 316° Northwest 341 392 10,000  Level Jacksonville Center
Thu 10:51:30 AM 30.2689 -83.8883 305° West 363 418 10,000 -700 Level Jacksonville Center
Thu 10:52:30 AM 30.2617 -83.9892 265° West 313 360 8,600 -2,050 Descending Jacksonville Center
Thu 10:53:30 AM 30.2464 -84.0781 259° West 293 337 5,900 -2,727 Descending Jacksonville Center
Thu 10:54:31 AM 30.2267 -84.1644 255° West 287 330 3,100 -1,950 Descending Jacksonville Center
Thu 10:55:30 AM 30.2133 -84.2411 259° West 282 325 2,000 -555 Descending Jacksonville Center
Thu 10:56:30 AM 30.2022 -84.3083 259° West 253 291 2,000  Level Jacksonville Center
Thu 10:58:00 AM 30.3556 -84.3360 351° North  Level FlightAware Approximate
Thu 11:05:00 AM 30.3833 -84.3500 180° South  Level FlightAware Approximate
Thu 11:06:00 AM 30.3967 -84.3509 180° South  Level Estimated
Thu 11:07:00 AM 30.3967 -84.3509 180° South  Level Estimated
Thu 11:08:00 AM 30.3967 -84.3509 180° South  Level Estimated

Login

Don't have an account? Register now (free) for customized features, flight alerts, and more!